Coboconk, Canada
Current Conditions -  °F | °C
As of 3:00 PM on Sunday 23 Nov 2014 (Local Time) from CYQA Reporting Station
Haze Haze  
Wind Chill: 36°   Ceiling: 900
Heat Index: 41°   Visibility: 2.5mi
Dew Point: 41°   Wind: 7mph
Humidity: 100%   Direction: 150°SSE
Pressure: 29.85"   Gusts: NA
Location:  44.67°N, 78.8°W
Report Text: CYQA 232000Z AUTO 15006KT 2 1/2SM BR OVC009 05/05 A2985 RMK SLP117
Loading
Personal Weather Stations






























Interactive Weather Map New forecast layout! Learn more

10-Day Weather Forecast

Advertisements
Track Severe Weather on mobile